• Join FlightAware (Why Join?)
  • Login
  • US Flag 
06:04AM EDT


 

Airport Tracker/Info


-or-


 

Live Flight TrackerFlight Track Log ✈ HPN8 ✈ 25-Apr-2013 ✈ KBED - KTEB

Flight Track Log - Related Links

Times and Time Zones

All times are in EDT time to prevent confusion due to time zone crossing. See the HPN8 flight status page for this flight to view local times or setup timezone preferences in your user account.

Time Position Orientation Groundspeed Altitude Reporting Facility
EDT Latitude Longitude Course Direction KTS MPH feet Rate Location/Type
11:33AM 42.4667 -71.3167 270° West 145 167 1,700  Level KA90
11:34AM 42.4667 -71.3833 270° West 178 205 3,100 660 Climbing KA90
11:35AM 42.4167 -71.4333 216° Southwest 210 242 3,100 180 Level KA90
11:36AM 42.3442 -71.4850 208° Southwest 223 257 3,600 1,200 Climbing Boston Center
11:37AM 42.2922 -71.4914 185° South 216 249 6,200 2,820 Climbing Boston Center
11:38AM 42.2739 -71.5478 246° West 167 192 9,300 2,760 Climbing Boston Center
11:39AM 42.2847 -71.6122 283° West 148 170 11,800 2,460 Climbing Boston Center
11:40AM 42.2789 -71.6683 262° West 153 176 14,300 2,100 Climbing Boston Center
11:41AM 42.2731 -71.7161 261° West 153 176 16,100 900 Climbing Boston Center
11:42AM 42.2650 -71.7864 261° West 164 189 16,100  Level Boston Center
11:43AM 42.2553 -71.8792 262° West 208 239 16,100  Level Boston Center
11:44AM 42.2453 -71.9717 262° West 254 292 16,100  Level Boston Center
11:45AM 42.2331 -72.0756 261° West 260 299 16,100  Level Boston Center
11:46AM 42.2250 -72.1625 263° West 260 299 16,100  Level Boston Center
11:47AM 42.2128 -72.2664 261° West 260 299 16,100  Level Boston Center
11:48AM 42.2044 -72.3503 262° West 260 299 16,100 -60 Level Boston Center
11:49AM 42.1900 -72.4569 260° West 260 299 16,000 -60 Descending Boston Center
11:50AM 42.1814 -72.5408 262° West 252 290 16,000 -660 Level Boston Center
11:51AM 42.1731 -72.6194 262° West 214 246 14,700 -1,020 Descending Boston Center
11:52AM 42.1625 -72.7061 261° West 216 249 14,000 -360 Descending Boston Center
11:53AM 42.1561 -72.7958 265° West 253 291 14,000  Level Boston Center
11:54AM 42.1514 -72.8936 266° West 275 316 14,000  Level Boston Center
11:55AM 42.1447 -73.0142 266° West 292 336 14,000  Level Boston Center
11:56AM 42.1358 -73.1289 264° West 292 336 14,000  Level Boston Center
11:57AM 42.1267 -73.2406 264° West 292 336 14,000  Level Boston Center
11:58AM 42.1194 -73.3497 265° West 299 344 14,000  Level Boston Center
11:59AM 42.1122 -73.4617 265° West 299 344 14,100  Climbing Boston Center
12:00PM 42.1031 -73.5733 264° West 299 344 14,100  Level Boston Center
12:01PM 42.0956 -73.6822 265° West 294 338 14,100  Level Boston Center
12:02PM 42.0881 -73.7886 265° West 288 331 14,100  Level Boston Center
12:03PM 42.0783 -73.9003 263° West 304 350 14,100  Level Boston Center
12:04PM 42.0686 -74.0092 263° West 304 350 14,100  Level Boston Center
12:05PM 42.0628 -74.1153 266° West 296 341 14,100  Level Boston Center
12:06PM 42.0550 -74.2156 264° West 279 321 14,100 -600 Level Boston Center
12:07PM 42.0244 -74.3125 247° West 286 329 13,000 -1,020 Descending Boston Center
12:08PM 41.9508 -74.3522 202° Southwest 285 328 12,100 -480 Descending Boston Center
12:09PM 41.8667 -74.3886 198° South 305 351 12,100 -600 Level Boston Center
12:10PM 41.7847 -74.4253 198° South 310 357 11,000 -1,200 Descending Boston Center
12:11PM 41.7133 -74.4592 200° South 294 338 9,800 -1,080 Descending Boston Center
12:12PM 41.6397 -74.4928 199° South 288 331 8,900 -1,020 Descending Boston Center
12:13PM 41.5664 -74.5239 198° South 283 326 7,800 -1,080 Descending Boston Center
12:14PM 41.4947 -74.5547 198° South 283 326 6,800 -900 Descending Boston Center
12:15PM 41.4272 -74.5997 207° Southwest 277 319 6,100 -360 Descending Boston Center
12:16PM 41.3333 -74.6167 188° South 277 319 6,100  Level New York TRACON
12:17PM 41.2667 -74.6500 201° Southwest 272 313 6,100 -60 Level New York TRACON
12:18PM 41.1833 -74.6167 163° South 278 320 6,000 -600 Descending New York TRACON
12:19PM 41.1167 -74.6000 169° South 270 311 4,900 -960 Descending New York TRACON
12:20PM 41.0500 -74.5833 169° South 246 283 4,100 -420 Descending New York TRACON
12:21PM 40.9833 -74.5667 169° South 220 253 4,100 -60 Level New York TRACON
12:22PM 40.9333 -74.5500 166° South 232 267 4,000 -540 Descending New York TRACON
12:23PM 40.8667 -74.5167 159° South 220 253 3,100 -480 Descending New York TRACON
12:24PM 40.8167 -74.5000 166° South 217 250 3,100  Level New York TRACON
12:25PM 40.7500 -74.4833 169° South 212 244 3,100 -300 Level New York TRACON
12:26PM 40.7000 -74.4667 166° South 204 235 2,600 -540 Descending New York TRACON
12:27PM 40.6500 -74.4333 153° Southeast 192 221 2,100 -300 Descending New York TRACON
12:28PM 40.6500 -74.3667 90° East 192 221 2,100  Level New York TRACON
12:29PM 40.6667 -74.3000 72° East 186 214 2,100  Level New York TRACON
12:30PM 40.7000 -74.2667 37° Northeast 182 209 2,100 -300 Level New York TRACON
12:31PM 40.7500 -74.2167 37° Northeast 198 228 1,600 -300 Descending New York TRACON
12:32PM 40.7833 -74.1667 49° Northeast 166 191 1,600 -120 Level New York TRACON
12:33PM 40.8000 -74.1333 57° Northeast 143 165 1,400 -300 Descending New York TRACON
12:34PM 40.8167 -74.0833 66° East 127 146 1,000 -420 Descending New York TRACON